Chrisanthi — SX7108 — position and weather

sailwx.info

Track history (hours):
 
Tides and Currents Weather Stations Pressure Air Temp Water Temp Dewpoint Dewpoint Depression Visibility Wind Speed Wind Dir Waves Ship Positions

Chrisanthi

Last reported at 2016-Dec-06 11:33 UTC. Time now 2016-Dec-06 12:10 UTC.
Position N 37°55' E 023°06'.

Length 56 m; draft 3.9 m.

Type: Ship (hazmat cat A). MMSI: 237009100.

Date/timePositionNaut miles runAvg speedWind from/ knotsBaromVisibWave heightAir tempDewpointWater temp
2016-Dec-06 11:33N 37°55' E 023°06'0 0.0
2016-Dec-06 10:33N 37°55' E 023°06'0 0.0
2016-Dec-06 09:33N 37°55' E 023°06'0 0.0
2016-Dec-06 08:33N 37°55' E 023°06'6 5.6
2016-Dec-06 07:32N 37°54' E 023°13'9 9.7
2016-Dec-06 06:33N 37°51' E 023°25'1010.0
2016-Dec-06 05:33N 37°50' E 023°37'10 9.5
2016-Dec-06 04:33N 37°42' E 023°45'22 9.1
2016-Dec-06 02:05N 37°42' E 024°13'610.6
2016-Dec-06 01:33N 37°46' E 024°18'1010.3
2016-Dec-06 00:33N 37°53' E 024°28'43 1.8
2016-Dec-05 00:32N 37°34' E 025°17'9 9.1
2016-Dec-04 23:34N 37°28' E 025°08'21 1.1
2016-Dec-04 05:09N 37°07' E 025°09'610.3
2016-Dec-04 04:33N 37°10' E 025°15'7 6.5
2016-Dec-04 03:33N 37°06' E 025°22'0 0.0
2016-Dec-04 02:34N 37°06' E 025°22'6 6.0
2016-Dec-04 01:33N 37°01' E 025°19'  
2016-Nov-29 04:19N 37°10' E 025°44'1210.0
2016-Nov-29 03:07N 37°13' E 025°30'5 9.5
2016-Nov-29 02:33N 37°14' E 025°23'10 9.9
2016-Nov-29 01:33N 37°16' E 025°11'10 9.8
2016-Nov-29 00:30N 37°19' E 024°59'49 9.8
2016-Nov-28 19:30N 37°34' E 023°59'9 9.7
2016-Nov-28 18:32N 37°38' E 023°49'9 8.8
2016-Nov-28 17:33N 37°43' E 023°40'9 8.9
2016-Nov-28 16:33N 37°49' E 023°32'10 9.9
2016-Nov-28 15:33N 37°52' E 023°20'10 9.9
2016-Nov-28 14:33N 37°54' E 023°08'2 0.7
2016-Nov-28 11:15N 37°55' E 023°05'0 0.0
2016-Nov-28 10:33N 37°55' E 023°05'0 0.0
2016-Nov-28 09:29N 37°55' E 023°05'0 0.0
2016-Nov-28 08:33N 37°55' E 023°05'0 0.0
2016-Nov-28 07:33N 37°55' E 023°05'0 0.0
2016-Nov-28 06:31N 37°55' E 023°05'0 0.0
2016-Nov-28 05:31N 37°55' E 023°05'0 0.0
2016-Nov-28 04:33N 37°55' E 023°05'7 6.5
2016-Nov-28 03:32N 37°54' E 023°14'9 9.4
2016-Nov-28 02:33N 37°52' E 023°25'10 9.6
2016-Nov-28 01:33N 37°50' E 023°37'9 9.0
2016-Nov-28 00:33N 37°43' E 023°44'10 9.6
2016-Nov-27 23:30N 37°38' E 023°55'41 9.7
2016-Nov-27 19:13N 37°24' E 024°44'710.3
2016-Nov-27 18:33N 37°21' E 024°52'1010.1
2016-Nov-27 17:32N 37°16' E 025°03'1010.2
2016-Nov-27 16:33N 37°11' E 025°15'8 8.0
2016-Nov-27 15:33N 37°06' E 025°22'0 0.0
2016-Nov-27 14:33N 37°06' E 025°22'0 0.0
2016-Nov-27 13:33N 37°06' E 025°22'0 0.0
2016-Nov-27 12:33N 37°06' E 025°22'1 1.0
2016-Nov-27 11:33N 37°07' E 025°21'  
Track history (hours):
 
Tides and Currents Weather Stations Pressure Air Temp Water Temp Dewpoint Dewpoint Depression Visibility Wind Speed Wind Dir Waves Ship Positions

Chrisanthi

Last reported at 2016-Dec-06 11:33 UTC. Time now 2016-Dec-06 12:10 UTC.
Position N 37°55' E 023°06'.

Length 56 m; draft 3.9 m.

Type: Ship (hazmat cat A). MMSI: 237009100.

Date/timePositionNaut miles runAvg speedWind from/ knotsBaromVisibWave heightAir tempDewpointWater temp
2016-Dec-06 11:33N 37°55' E 023°06'0 0.0
2016-Dec-06 10:33N 37°55' E 023°06'0 0.0
2016-Dec-06 09:33N 37°55' E 023°06'0 0.0
2016-Dec-06 08:33N 37°55' E 023°06'6 5.6
2016-Dec-06 07:32N 37°54' E 023°13'9 9.7
2016-Dec-06 06:33N 37°51' E 023°25'1010.0
2016-Dec-06 05:33N 37°50' E 023°37'10 9.5
2016-Dec-06 04:33N 37°42' E 023°45'22 9.1
2016-Dec-06 02:05N 37°42' E 024°13'610.6
2016-Dec-06 01:33N 37°46' E 024°18'1010.3
2016-Dec-06 00:33N 37°53' E 024°28'43 1.8
2016-Dec-05 00:32N 37°34' E 025°17'9 9.1
2016-Dec-04 23:34N 37°28' E 025°08'21 1.1
2016-Dec-04 05:09N 37°07' E 025°09'610.3
2016-Dec-04 04:33N 37°10' E 025°15'7 6.5
2016-Dec-04 03:33N 37°06' E 025°22'0 0.0
2016-Dec-04 02:34N 37°06' E 025°22'6 6.0
2016-Dec-04 01:33N 37°01' E 025°19'  
2016-Nov-29 04:19N 37°10' E 025°44'1210.0
2016-Nov-29 03:07N 37°13' E 025°30'5 9.5
2016-Nov-29 02:33N 37°14' E 025°23'10 9.9
2016-Nov-29 01:33N 37°16' E 025°11'10 9.8
2016-Nov-29 00:30N 37°19' E 024°59'49 9.8
2016-Nov-28 19:30N 37°34' E 023°59'9 9.7
2016-Nov-28 18:32N 37°38' E 023°49'9 8.8
2016-Nov-28 17:33N 37°43' E 023°40'9 8.9
2016-Nov-28 16:33N 37°49' E 023°32'10 9.9
2016-Nov-28 15:33N 37°52' E 023°20'10 9.9
2016-Nov-28 14:33N 37°54' E 023°08'2 0.7
2016-Nov-28 11:15N 37°55' E 023°05'0 0.0
2016-Nov-28 10:33N 37°55' E 023°05'0 0.0
2016-Nov-28 09:29N 37°55' E 023°05'0 0.0
2016-Nov-28 08:33N 37°55' E 023°05'0 0.0
2016-Nov-28 07:33N 37°55' E 023°05'0 0.0
2016-Nov-28 06:31N 37°55' E 023°05'0 0.0
2016-Nov-28 05:31N 37°55' E 023°05'0 0.0
2016-Nov-28 04:33N 37°55' E 023°05'7 6.5
2016-Nov-28 03:32N 37°54' E 023°14'9 9.4
2016-Nov-28 02:33N 37°52' E 023°25'10 9.6
2016-Nov-28 01:33N 37°50' E 023°37'9 9.0
2016-Nov-28 00:33N 37°43' E 023°44'10 9.6
2016-Nov-27 23:30N 37°38' E 023°55'41 9.7
2016-Nov-27 19:13N 37°24' E 024°44'710.3
2016-Nov-27 18:33N 37°21' E 024°52'1010.1
2016-Nov-27 17:32N 37°16' E 025°03'1010.2
2016-Nov-27 16:33N 37°11' E 025°15'8 8.0
2016-Nov-27 15:33N 37°06' E 025°22'0 0.0
2016-Nov-27 14:33N 37°06' E 025°22'0 0.0
2016-Nov-27 13:33N 37°06' E 025°22'0 0.0
2016-Nov-27 12:33N 37°06' E 025°22'1 1.0
2016-Nov-27 11:33N 37°07' E 025°21'  

Dump ship's entire track history